createdAt,value
2023-05-25T00:00:53.416Z,15.57
2023-05-25T00:01:44.467Z,29.00
2023-05-25T00:02:47.458Z,19.74
2023-05-25T00:03:50.844Z,18.43
2023-05-25T00:04:53.967Z,19.89
2023-05-25T00:05:57.033Z,18.14
2023-05-25T00:07:00.000Z,18.19
2023-05-25T00:08:02.876Z,21.18
2023-05-25T00:09:05.744Z,14.43
2023-05-25T00:10:08.830Z,15.19
2023-05-25T00:11:11.813Z,17.71
2023-05-25T00:12:14.784Z,18.44
2023-05-25T00:13:18.892Z,20.39
2023-05-25T00:14:21.861Z,21.11
2023-05-25T00:15:24.945Z,18.13
2023-05-25T00:16:27.833Z,11.55
2023-05-25T00:17:30.827Z,12.50
2023-05-25T00:18:33.674Z,11.15
2023-05-25T00:19:36.650Z,15.75
2023-05-25T00:20:40.923Z,13.48
2023-05-25T00:21:43.925Z,14.04
2023-05-25T00:22:46.803Z,18.75
2023-05-25T00:23:49.476Z,16.66
2023-05-25T00:24:52.348Z,13.22
2023-05-25T00:25:55.643Z,13.92
2023-05-25T00:26:58.443Z,18.58
2023-05-25T00:28:01.178Z,21.50
2023-05-25T00:29:03.968Z,19.27
2023-05-25T00:30:06.850Z,14.83
2023-05-25T00:31:09.997Z,13.15
2023-05-25T00:32:12.898Z,15.18
2023-05-25T00:33:15.770Z,17.58
2023-05-25T00:34:19.049Z,14.27
2023-05-25T00:35:21.924Z,18.72
2023-05-25T00:36:25.037Z,16.25
2023-05-25T00:37:27.989Z,25.25
2023-05-25T00:38:30.948Z,16.07
2023-05-25T00:39:33.934Z,12.91
2023-05-25T00:40:37.013Z,12.95
2023-05-25T00:41:40.091Z,13.57
2023-05-25T00:42:43.070Z,17.75
2023-05-25T00:43:45.943Z,21.75
2023-05-25T00:44:48.816Z,20.04
2023-05-25T00:45:51.707Z,9.50
2023-05-25T00:46:54.886Z,16.78
2023-05-25T00:47:57.725Z,21.58
2023-05-25T00:49:00.525Z,16.27
2023-05-25T00:50:03.197Z,21.23
2023-05-25T00:51:05.958Z,12.95
2023-05-25T00:52:08.734Z,13.38
2023-05-25T00:53:11.306Z,11.57
2023-05-25T00:54:14.070Z,18.87
2023-05-25T00:55:16.853Z,11.62
2023-05-25T00:56:19.524Z,14.81
2023-05-25T00:57:22.084Z,12.43
2023-05-25T00:58:24.749Z,9.38
2023-05-25T00:59:27.421Z,12.79
2023-05-25T01:00:30.306Z,10.72
2023-05-25T01:01:33.182Z,10.67
2023-05-25T01:02:36.006Z,11.69
2023-05-25T01:03:38.882Z,20.32
2023-05-25T01:04:41.701Z,19.23
2023-05-25T01:05:44.688Z,14.05
2023-05-25T01:06:47.750Z,12.38
2023-05-25T01:07:50.739Z,14.22
2023-05-25T01:08:53.605Z,14.29
2023-05-25T01:09:56.270Z,12.68
2023-05-25T01:10:59.037Z,14.19
2023-05-25T01:12:01.820Z,12.24
2023-05-25T01:13:04.622Z,13.06
2023-05-25T01:14:07.460Z,13.41
2023-05-25T01:15:10.169Z,11.04
2023-05-25T01:16:12.979Z,9.97
2023-05-25T01:17:15.696Z,12.13
2023-05-25T01:18:18.368Z,13.80
2023-05-25T01:19:21.234Z,12.51
2023-05-25T01:20:23.934Z,22.68
2023-05-25T01:21:26.568Z,13.27
2023-05-25T01:22:29.173Z,11.77
2023-05-25T01:23:31.945Z,16.72
2023-05-25T01:24:35.187Z,11.11
2023-05-25T01:25:38.270Z,11.49
2023-05-25T01:26:41.148Z,11.01
2023-05-25T01:27:43.918Z,10.59
2023-05-25T01:28:47.197Z,11.18
2023-05-25T01:29:50.179Z,9.96
2023-05-25T01:30:53.380Z,10.81
2023-05-25T01:31:56.403Z,11.41
2023-05-25T01:32:59.255Z,10.27
2023-05-25T01:34:02.376Z,9.89
2023-05-25T01:35:05.552Z,9.71
2023-05-25T01:36:08.840Z,11.24
2023-05-25T01:37:12.119Z,10.10
2023-05-25T01:38:15.309Z,9.15
2023-05-25T01:39:18.698Z,10.69
2023-05-25T01:40:21.985Z,11.06
2023-05-25T01:41:24.949Z,12.39
2023-05-25T01:42:28.036Z,10.01
2023-05-25T01:43:31.107Z,9.34
2023-05-25T01:44:34.085Z,10.71
2023-05-25T01:45:37.193Z,11.30
2023-05-25T01:46:40.120Z,11.32
2023-05-25T01:47:43.091Z,10.95
2023-05-25T01:48:45.896Z,10.07
2023-05-25T01:49:49.076Z,9.29
2023-05-25T01:50:52.259Z,9.63
2023-05-25T01:51:55.162Z,10.09
2023-05-25T01:52:58.216Z,13.58
2023-05-25T01:54:01.502Z,10.54
2023-05-25T01:55:05.099Z,11.23
2023-05-25T01:56:08.472Z,11.80
2023-05-25T01:57:11.652Z,9.59
2023-05-25T01:58:15.047Z,9.99
2023-05-25T01:59:18.330Z,9.70
2023-05-25T02:00:21.644Z,13.63
2023-05-25T02:01:24.736Z,10.68
2023-05-25T02:02:27.900Z,11.96
2023-05-25T02:03:31.048Z,10.81
2023-05-25T02:04:34.273Z,10.18
2023-05-25T02:05:37.619Z,10.93
2023-05-25T02:06:40.593Z,13.41
2023-05-25T02:07:43.984Z,10.56
2023-05-25T02:08:47.367Z,11.25
2023-05-25T02:09:50.448Z,12.25
2023-05-25T02:10:53.935Z,11.28
2023-05-25T02:11:56.914Z,11.81
2023-05-25T02:13:00.431Z,10.42
2023-05-25T02:14:04.000Z,10.22
2023-05-25T02:15:07.199Z,11.45
2023-05-25T02:16:10.633Z,12.42
2023-05-25T02:17:14.153Z,11.94
2023-05-25T02:18:17.446Z,14.35
2023-05-25T02:19:20.729Z,11.41
2023-05-25T02:20:24.130Z,10.21
2023-05-25T02:21:27.603Z,10.07
2023-05-25T02:22:30.989Z,10.94
2023-05-25T02:23:34.172Z,8.69
2023-05-25T02:24:37.666Z,10.11
2023-05-25T02:25:41.134Z,9.68
2023-05-25T02:26:44.327Z,13.02
2023-05-25T02:27:47.508Z,11.04
2023-05-25T02:28:50.594Z,9.79
2023-05-25T02:29:54.077Z,9.58
2023-05-25T02:30:57.296Z,9.82
2023-05-25T02:32:00.649Z,11.29
2023-05-25T02:33:03.997Z,14.33
2023-05-25T02:34:06.906Z,11.57
2023-05-25T02:35:09.997Z,11.74
2023-05-25T02:36:13.173Z,9.57
2023-05-25T02:37:16.316Z,10.26
2023-05-25T02:38:19.332Z,11.93
2023-05-25T02:39:22.512Z,11.39
2023-05-25T02:40:25.797Z,12.61
2023-05-25T02:41:28.876Z,12.40
2023-05-25T02:42:32.161Z,12.25
2023-05-25T02:43:35.449Z,12.07
2023-05-25T02:44:38.431Z,15.52
2023-05-25T02:45:41.847Z,18.41
2023-05-25T02:46:44.936Z,17.88
2023-05-25T02:47:48.083Z,17.58
2023-05-25T02:48:50.841Z,16.11
2023-05-25T02:49:53.823Z,17.08
2023-05-25T02:50:57.016Z,19.65
2023-05-25T02:51:59.874Z,16.58
2023-05-25T02:53:02.870Z,15.60
2023-05-25T02:54:05.832Z,14.92
2023-05-25T02:55:08.804Z,14.81
2023-05-25T02:56:11.584Z,14.72
2023-05-25T02:57:14.354Z,15.56
2023-05-25T02:58:17.322Z,14.77
2023-05-25T02:59:20.300Z,12.37
2023-05-25T03:00:23.073Z,13.25
2023-05-25T03:01:26.060Z,12.70
2023-05-25T03:02:28.986Z,10.52
2023-05-25T03:03:32.137Z,12.29
2023-05-25T03:04:35.082Z,12.10
2023-05-25T03:05:38.262Z,10.03
2023-05-25T03:06:41.271Z,9.77
2023-05-25T03:07:44.032Z,11.28
2023-05-25T03:08:47.311Z,11.48
2023-05-25T03:09:50.174Z,10.91
2023-05-25T03:10:52.849Z,9.45
2023-05-25T03:11:55.825Z,13.11
2023-05-25T03:12:59.521Z,9.07
2023-05-25T03:14:02.599Z,10.58
2023-05-25T03:15:05.715Z,10.78
2023-05-25T03:16:08.948Z,12.86
2023-05-25T03:17:11.736Z,13.85
2023-05-25T03:18:14.606Z,15.55
2023-05-25T03:19:17.990Z,13.25
2023-05-25T03:20:21.126Z,12.15
2023-05-25T03:21:24.255Z,12.93
2023-05-25T03:22:27.540Z,13.34
2023-05-25T03:23:30.521Z,10.31
2023-05-25T03:24:33.903Z,8.81
2023-05-25T03:25:36.880Z,12.45
2023-05-25T03:26:40.062Z,13.39
2023-05-25T03:27:43.343Z,9.89
2023-05-25T03:28:46.451Z,11.48
2023-05-25T03:29:49.919Z,14.19
2023-05-25T03:30:52.992Z,23.82
2023-05-25T03:31:56.309Z,23.46
2023-05-25T03:32:59.486Z,16.56
2023-05-25T03:34:02.450Z,17.77
2023-05-25T03:35:06.043Z,18.84
2023-05-25T03:36:09.619Z,11.93
2023-05-25T03:37:12.902Z,14.60
2023-05-25T03:38:15.986Z,12.94
2023-05-25T03:39:18.960Z,11.65
2023-05-25T03:40:22.245Z,14.06
2023-05-25T03:41:25.428Z,14.24
2023-05-25T03:42:28.504Z,15.35
2023-05-25T03:43:31.500Z,14.54
2023-05-25T03:44:34.681Z,13.14
2023-05-25T03:45:37.556Z,12.37
2023-05-25T03:46:40.364Z,12.04
2023-05-25T03:47:43.142Z,13.82
2023-05-25T03:48:45.984Z,16.81
2023-05-25T03:49:48.732Z,14.73
2023-05-25T03:50:51.712Z,13.25
2023-05-25T03:51:54.594Z,10.74
2023-05-25T03:52:57.365Z,12.86
2023-05-25T03:54:00.036Z,14.41
2023-05-25T03:55:03.013Z,13.38
2023-05-25T03:56:05.879Z,11.95
2023-05-25T03:57:09.265Z,12.68
2023-05-25T03:58:12.240Z,13.38
2023-05-25T03:59:15.222Z,10.47
2023-05-25T04:00:18.295Z,12.82
2023-05-25T04:01:21.478Z,9.65
2023-05-25T04:02:24.712Z,10.85
2023-05-25T04:03:27.968Z,13.42
2023-05-25T04:04:31.261Z,13.05
2023-05-25T04:05:34.408Z,11.34
2023-05-25T04:06:37.697Z,10.33
2023-05-25T04:07:40.879Z,12.84
2023-05-25T04:08:43.955Z,10.24
2023-05-25T04:09:47.245Z,14.41
2023-05-25T04:10:50.027Z,12.27
2023-05-25T04:11:53.089Z,13.52
2023-05-25T04:12:56.068Z,22.93
2023-05-25T04:13:59.147Z,51.24
2023-05-25T04:15:02.234Z,22.90
2023-05-25T04:16:05.263Z,21.84
2023-05-25T04:17:08.500Z,13.82
2023-05-25T04:18:11.865Z,11.13
2023-05-25T04:19:14.958Z,12.57
2023-05-25T04:20:18.072Z,12.55
2023-05-25T04:21:21.218Z,14.01
2023-05-25T04:22:24.089Z,11.92
2023-05-25T04:23:27.170Z,13.85
2023-05-25T04:24:30.042Z,10.50
2023-05-25T04:25:33.020Z,12.17
2023-05-25T04:26:36.003Z,13.59
2023-05-25T04:27:38.881Z,12.88
2023-05-25T04:28:41.541Z,12.95
2023-05-25T04:29:44.521Z,13.80
2023-05-25T04:30:47.186Z,12.58
2023-05-25T04:31:49.984Z,14.28
2023-05-25T04:32:52.961Z,14.47
2023-05-25T04:33:55.712Z,13.24
2023-05-25T04:34:58.492Z,16.63
2023-05-25T04:36:01.465Z,15.00
2023-05-25T04:37:04.133Z,13.78
2023-05-25T04:38:07.214Z,13.37
2023-05-25T04:39:10.193Z,13.91
2023-05-25T04:40:13.058Z,11.65
2023-05-25T04:41:15.844Z,12.03
2023-05-25T04:42:18.717Z,11.95
2023-05-25T04:43:21.585Z,12.93
2023-05-25T04:44:24.259Z,15.04
2023-05-25T04:45:27.231Z,13.30
2023-05-25T04:46:30.064Z,12.14
2023-05-25T04:47:32.828Z,12.63
2023-05-25T04:48:35.582Z,15.92
2023-05-25T04:49:38.524Z,13.07
2023-05-25T04:50:41.712Z,13.57
2023-05-25T04:51:44.581Z,13.55
2023-05-25T04:52:47.557Z,15.04
2023-05-25T04:53:50.641Z,14.79
2023-05-25T04:54:56.585Z,11.62
2023-05-25T04:55:59.269Z,14.54
2023-05-25T04:57:02.020Z,14.07
2023-05-25T04:58:04.839Z,12.45
2023-05-25T04:59:07.884Z,10.20
2023-05-25T05:00:10.875Z,11.81
2023-05-25T05:01:13.873Z,11.78
2023-05-25T05:02:16.913Z,13.40
2023-05-25T05:03:20.031Z,11.30
2023-05-25T05:04:23.279Z,12.22
2023-05-25T05:05:26.268Z,10.35
2023-05-25T05:06:29.226Z,10.96
2023-05-25T05:07:32.312Z,10.02
2023-05-25T05:08:35.383Z,12.36
2023-05-25T05:09:38.891Z,11.58
2023-05-25T05:10:42.107Z,10.22
2023-05-25T05:11:45.342Z,11.29
2023-05-25T05:12:48.525Z,11.00
2023-05-25T05:13:51.604Z,9.66
2023-05-25T05:14:54.896Z,10.66
2023-05-25T05:15:57.972Z,9.74
2023-05-25T05:17:01.496Z,9.34
2023-05-25T05:18:04.804Z,11.08
2023-05-25T05:19:07.928Z,8.75
2023-05-25T05:20:11.379Z,9.28
2023-05-25T05:21:14.390Z,9.71
2023-05-25T05:22:17.467Z,12.23
2023-05-25T05:23:20.549Z,10.57
2023-05-25T05:24:23.623Z,9.65
2023-05-25T05:25:26.815Z,8.80
2023-05-25T05:26:30.650Z,9.32
2023-05-25T05:27:34.511Z,11.14
2023-05-25T05:28:37.790Z,10.62
2023-05-25T05:29:40.766Z,10.62
2023-05-25T05:30:43.951Z,11.13
2023-05-25T05:31:47.146Z,11.24
2023-05-25T05:32:50.240Z,11.87
2023-05-25T05:33:53.354Z,10.56
2023-05-25T05:34:56.466Z,9.00
2023-05-25T05:35:59.753Z,9.48
2023-05-25T05:37:02.526Z,13.81
2023-05-25T05:38:05.189Z,14.93
2023-05-25T05:39:07.899Z,11.50
2023-05-25T05:40:10.647Z,16.04
2023-05-25T05:41:13.904Z,9.99
2023-05-25T05:42:16.694Z,10.04
2023-05-25T05:43:19.567Z,11.46
2023-05-25T05:44:23.409Z,8.03
2023-05-25T05:45:26.858Z,12.71
2023-05-25T05:46:30.168Z,11.85
2023-05-25T05:47:33.267Z,13.00
2023-05-25T05:48:36.499Z,14.35
2023-05-25T05:49:39.681Z,10.95
2023-05-25T05:50:42.886Z,12.12
2023-05-25T05:51:46.159Z,10.09
2023-05-25T05:52:49.021Z,10.59
2023-05-25T05:53:51.896Z,9.51
2023-05-25T05:54:54.775Z,10.62
2023-05-25T05:55:57.652Z,9.98
2023-05-25T05:57:02.481Z,9.08
2023-05-25T05:58:05.469Z,8.46
2023-05-25T05:59:08.114Z,7.84
2023-05-25T06:00:10.887Z,10.48
2023-05-25T06:01:13.659Z,10.19
2023-05-25T06:02:16.607Z,9.91
2023-05-25T06:03:19.433Z,9.28
2023-05-25T06:04:22.588Z,8.34
2023-05-25T06:05:25.511Z,11.18
2023-05-25T06:06:28.258Z,9.21
2023-05-25T06:07:31.324Z,11.93
2023-05-25T06:08:34.292Z,9.58
2023-05-25T06:09:37.501Z,10.79
2023-05-25T06:10:40.459Z,9.35
2023-05-25T06:11:43.434Z,10.92
2023-05-25T06:12:46.630Z,10.44
2023-05-25T06:13:49.626Z,10.25
2023-05-25T06:14:52.772Z,12.18
2023-05-25T06:15:56.114Z,12.19
2023-05-25T06:17:05.203Z,13.66
2023-05-25T06:18:11.474Z,13.02
2023-05-25T06:19:14.303Z,11.55
2023-05-25T06:20:17.223Z,12.47
2023-05-25T06:21:20.263Z,17.20
2023-05-25T06:22:23.445Z,19.74
2023-05-25T06:23:26.524Z,16.82
2023-05-25T06:24:29.408Z,20.06
2023-05-25T06:25:32.066Z,13.25
2023-05-25T06:26:34.950Z,12.19
2023-05-25T06:28:59.528Z,29.17
2023-05-25T06:30:03.028Z,50.44
2023-05-25T06:31:06.614Z,26.85
2023-05-25T06:32:09.889Z,16.72
2023-05-25T06:33:13.175Z,11.55
2023-05-25T06:34:18.785Z,18.85
2023-05-25T06:35:21.187Z,14.18
2023-05-25T06:36:24.272Z,11.81
2023-05-25T06:37:27.287Z,10.82
2023-05-25T06:38:30.519Z,11.51
2023-05-25T06:39:33.603Z,11.78
2023-05-25T06:40:36.576Z,10.54
2023-05-25T06:44:17.864Z,11.90
2023-05-25T06:45:21.375Z,12.64
2023-05-25T06:46:24.784Z,11.69
2023-05-25T06:47:31.105Z,12.96
2023-05-25T06:48:33.281Z,12.35
2023-05-25T06:49:36.651Z,10.68
2023-05-25T06:50:40.448Z,10.31
2023-05-25T06:51:44.058Z,10.04
2023-05-25T06:52:47.014Z,11.42
2023-05-25T06:53:50.528Z,14.15
2023-05-25T06:54:53.997Z,10.18
2023-05-25T06:55:57.626Z,10.59
2023-05-25T06:57:01.070Z,9.89
2023-05-25T06:58:04.556Z,10.88
2023-05-25T06:59:08.032Z,10.01
2023-05-25T07:00:11.546Z,12.55
2023-05-25T07:01:15.367Z,11.05
2023-05-25T07:02:19.231Z,10.97
2023-05-25T07:03:22.971Z,9.44
2023-05-25T07:04:26.736Z,10.25
2023-05-25T07:05:30.148Z,8.89
2023-05-25T07:06:34.204Z,7.81
2023-05-25T07:07:37.603Z,8.69
2023-05-25T07:08:41.195Z,9.78
2023-05-25T07:09:44.799Z,9.67
2023-05-25T07:10:50.115Z,8.66
2023-05-25T07:11:53.558Z,9.32
2023-05-25T07:12:57.166Z,8.75
2023-05-25T07:14:00.686Z,8.34
2023-05-25T07:15:04.286Z,9.26
2023-05-25T07:16:07.588Z,9.68
2023-05-25T07:17:11.471Z,8.38
2023-05-25T07:18:14.506Z,8.02
2023-05-25T07:19:18.041Z,8.65
2023-05-25T07:20:21.381Z,10.97
2023-05-25T07:21:24.699Z,12.18
2023-05-25T07:22:28.104Z,13.93
2023-05-25T07:23:31.379Z,9.08
2023-05-25T07:24:34.867Z,9.16
2023-05-25T07:25:38.052Z,8.41
2023-05-25T07:26:41.338Z,9.29
2023-05-25T07:27:44.608Z,9.81
2023-05-25T07:28:47.799Z,8.42
2023-05-25T07:29:51.189Z,8.36
2023-05-25T07:30:54.182Z,10.62
2023-05-25T07:31:57.363Z,11.39
2023-05-25T07:33:00.556Z,13.24
2023-05-25T07:34:03.705Z,13.28
2023-05-25T07:35:07.097Z,7.70
2023-05-25T07:36:10.477Z,9.09
2023-05-25T07:37:13.968Z,11.62
2023-05-25T07:38:17.253Z,11.90
2023-05-25T07:39:20.638Z,8.11
2023-05-25T07:40:23.659Z,8.52
2023-05-25T07:41:26.696Z,8.74
2023-05-25T07:42:29.468Z,8.59
2023-05-25T07:43:32.444Z,10.16
2023-05-25T07:44:35.316Z,9.79
2023-05-25T07:45:38.084Z,10.53
2023-05-25T07:46:40.924Z,9.18
2023-05-25T07:47:43.830Z,10.26
2023-05-25T07:48:46.610Z,9.83
2023-05-25T07:49:49.689Z,10.05
2023-05-25T07:50:52.559Z,12.49
2023-05-25T07:51:55.757Z,13.81
2023-05-25T07:52:58.824Z,15.06
2023-05-25T07:54:01.693Z,11.22
2023-05-25T07:55:04.501Z,12.96
2023-05-25T07:56:09.131Z,14.53
2023-05-25T07:57:11.659Z,14.27
2023-05-25T07:58:14.736Z,14.36
2023-05-25T07:59:17.932Z,11.78
2023-05-25T08:00:20.898Z,13.15
2023-05-25T08:01:26.253Z,11.25
2023-05-25T08:02:28.685Z,10.14
2023-05-25T08:03:44.372Z,12.83
2023-05-25T08:04:36.334Z,12.86
2023-05-25T08:05:39.055Z,13.45
2023-05-25T08:06:41.951Z,13.69
2023-05-25T08:07:44.820Z,9.65
2023-05-25T08:08:47.517Z,8.88
2023-05-25T08:09:50.244Z,10.74
2023-05-25T08:10:53.019Z,10.34
2023-05-25T08:12:07.734Z,14.48
2023-05-25T08:13:00.305Z,13.89
2023-05-25T08:14:03.378Z,10.13
2023-05-25T08:15:06.563Z,8.82
2023-05-25T08:16:09.742Z,11.15
2023-05-25T08:17:16.499Z,12.14
2023-05-25T08:18:20.309Z,10.57
2023-05-25T08:19:23.703Z,10.39
2023-05-25T08:20:27.541Z,10.41
2023-05-25T08:21:31.798Z,9.97
2023-05-25T08:22:35.290Z,10.01
2023-05-25T08:23:38.468Z,8.46
2023-05-25T08:24:41.238Z,9.15
2023-05-25T08:25:44.469Z,8.15
2023-05-25T08:27:51.907Z,10.36
2023-05-25T08:28:54.681Z,10.95
2023-05-25T08:29:57.454Z,8.87
2023-05-25T08:31:00.269Z,8.72
2023-05-25T08:32:02.901Z,11.88
2023-05-25T08:33:05.582Z,10.69
2023-05-25T08:34:08.545Z,17.17
2023-05-25T08:35:11.415Z,7.52
2023-05-25T08:36:14.499Z,8.07
2023-05-25T08:37:17.368Z,9.25
2023-05-25T08:38:20.447Z,11.67
2023-05-25T08:39:23.729Z,9.97
2023-05-25T08:40:26.719Z,10.78
2023-05-25T08:41:29.898Z,8.55
2023-05-25T08:42:32.869Z,10.82
2023-05-25T08:43:36.469Z,10.18
2023-05-25T08:44:39.333Z,10.95
2023-05-25T08:45:46.903Z,11.96
2023-05-25T08:46:46.928Z,10.33
2023-05-25T08:47:49.965Z,11.78
2023-05-25T08:48:52.795Z,10.44
2023-05-25T08:49:55.754Z,8.96
2023-05-25T08:50:58.834Z,11.71
2023-05-25T08:52:02.219Z,7.35
2023-05-25T08:53:05.125Z,9.85
2023-05-25T08:54:08.283Z,9.13
2023-05-25T08:55:11.077Z,8.20
2023-05-25T08:56:13.826Z,8.80
2023-05-25T08:57:17.020Z,9.82
2023-05-25T08:58:19.673Z,11.08
2023-05-25T08:59:22.656Z,9.62
2023-05-25T09:00:25.536Z,7.04
2023-05-25T09:01:28.258Z,8.16
2023-05-25T09:02:31.427Z,8.24
2023-05-25T09:03:34.265Z,9.03
2023-05-25T09:04:37.452Z,9.05
2023-05-25T09:05:40.307Z,10.52
2023-05-25T09:06:45.290Z,10.10
2023-05-25T09:07:48.112Z,7.71
2023-05-25T09:08:51.287Z,9.38
2023-05-25T09:09:54.468Z,9.28
2023-05-25T09:10:57.564Z,8.34
2023-05-25T09:12:00.627Z,10.68
2023-05-25T09:13:16.685Z,10.68
2023-05-25T09:14:08.423Z,9.94
2023-05-25T09:15:11.319Z,9.36
2023-05-25T09:16:14.316Z,9.22
2023-05-25T09:17:17.454Z,9.82
2023-05-25T09:18:20.672Z,8.54
2023-05-25T09:19:23.513Z,7.48
2023-05-25T09:20:26.208Z,8.28
2023-05-25T09:21:29.071Z,9.33
2023-05-25T09:22:32.040Z,12.72
2023-05-25T09:23:35.433Z,8.97
2023-05-25T09:24:38.505Z,9.70
2023-05-25T09:25:41.644Z,11.42
2023-05-25T09:26:46.371Z,12.42
2023-05-25T09:27:49.286Z,9.86
2023-05-25T09:28:52.598Z,9.05
2023-05-25T09:29:55.546Z,9.97
2023-05-25T09:30:58.844Z,8.79
2023-05-25T09:32:01.943Z,9.12
2023-05-25T09:33:05.047Z,8.73
2023-05-25T09:34:08.280Z,9.49
2023-05-25T09:35:11.255Z,8.37
2023-05-25T09:36:14.146Z,9.88
2023-05-25T09:37:17.309Z,10.58
2023-05-25T09:38:20.903Z,9.10
2023-05-25T09:39:24.225Z,8.69
2023-05-25T09:40:27.066Z,6.15
2023-05-25T09:41:30.764Z,6.52
2023-05-25T09:42:34.041Z,6.88
2023-05-25T09:43:42.866Z,7.55
2023-05-25T09:44:41.423Z,7.53
2023-05-25T09:45:44.956Z,9.65
2023-05-25T09:46:47.902Z,9.52
2023-05-25T09:47:50.942Z,8.15
2023-05-25T09:48:53.858Z,7.25
2023-05-25T09:49:56.820Z,7.08
2023-05-25T09:50:59.704Z,8.56
2023-05-25T09:52:02.986Z,7.75
2023-05-25T09:53:05.756Z,7.17
2023-05-25T09:54:08.543Z,8.05
2023-05-25T09:55:11.500Z,9.41
2023-05-25T09:56:14.296Z,7.34
2023-05-25T09:57:16.989Z,7.49
2023-05-25T09:58:19.728Z,6.45
2023-05-25T09:59:22.905Z,8.47
2023-05-25T10:00:25.771Z,8.02
2023-05-25T10:01:28.620Z,8.48
2023-05-25T10:02:31.334Z,7.08
2023-05-25T10:03:34.094Z,6.62
2023-05-25T10:04:36.823Z,7.24
2023-05-25T10:05:39.856Z,8.23
2023-05-25T10:06:42.510Z,11.15
2023-05-25T10:07:45.288Z,7.76
2023-05-25T10:08:48.064Z,8.48
2023-05-25T10:09:50.723Z,10.22
2023-05-25T10:10:53.943Z,13.48
2023-05-25T10:11:56.783Z,7.34
2023-05-25T10:12:59.558Z,6.42
2023-05-25T10:14:02.322Z,7.36
2023-05-25T10:15:05.104Z,7.75
2023-05-25T10:16:08.019Z,6.88
2023-05-25T10:17:10.753Z,7.44
2023-05-25T10:18:13.530Z,8.00
2023-05-25T10:19:16.324Z,8.67
2023-05-25T10:20:19.130Z,7.00
2023-05-25T10:21:22.055Z,6.98
2023-05-25T10:22:24.706Z,8.26
2023-05-25T10:23:33.073Z,8.50
2023-05-25T10:24:35.777Z,8.76
2023-05-25T10:25:38.551Z,8.37
2023-05-25T10:26:41.634Z,9.78
2023-05-25T10:27:44.641Z,8.69
2023-05-25T10:28:47.300Z,9.41
2023-05-25T10:29:49.950Z,7.92
2023-05-25T10:30:52.719Z,6.62
2023-05-25T10:31:55.721Z,6.83
2023-05-25T10:32:58.502Z,8.04
2023-05-25T10:34:01.242Z,6.05
2023-05-25T10:35:04.026Z,7.87
2023-05-25T10:36:10.770Z,9.93
2023-05-25T10:37:11.611Z,8.99
2023-05-25T10:38:14.583Z,8.92
2023-05-25T10:39:17.658Z,7.87
2023-05-25T10:40:20.636Z,8.05
2023-05-25T10:41:23.615Z,7.13
2023-05-25T10:42:26.488Z,6.66
2023-05-25T10:43:29.162Z,6.27
2023-05-25T10:44:31.937Z,6.92
2023-05-25T10:45:34.713Z,7.14
2023-05-25T10:46:37.578Z,6.33
2023-05-25T10:47:40.353Z,6.29
2023-05-25T10:48:43.126Z,7.48
2023-05-25T10:49:45.794Z,7.69
2023-05-25T10:50:48.569Z,7.57
2023-05-25T10:51:51.550Z,6.72
2023-05-25T10:52:54.751Z,5.56
2023-05-25T10:53:57.602Z,6.15
2023-05-25T10:55:00.785Z,6.91
2023-05-25T10:56:03.774Z,6.69
2023-05-25T10:57:06.839Z,6.91
2023-05-25T10:58:09.919Z,6.65
2023-05-25T10:59:13.105Z,5.34
2023-05-25T11:00:15.937Z,6.01
2023-05-25T11:01:18.859Z,4.41
2023-05-25T11:02:21.672Z,6.66
2023-05-25T11:03:24.490Z,6.97
2023-05-25T11:04:27.203Z,6.89
2023-05-25T11:05:29.948Z,6.09
2023-05-25T11:06:32.707Z,7.68
2023-05-25T11:07:35.485Z,6.77
2023-05-25T11:08:38.248Z,8.50
2023-05-25T11:09:41.045Z,9.05
2023-05-25T11:10:43.703Z,7.44
2023-05-25T11:11:46.366Z,8.75
2023-05-25T11:12:49.352Z,7.07
2023-05-25T11:13:52.417Z,6.87
2023-05-25T11:14:56.321Z,6.04
2023-05-25T11:15:59.199Z,7.35
2023-05-25T11:17:02.169Z,6.14
2023-05-25T11:18:05.189Z,7.04
2023-05-25T11:19:08.438Z,6.32
2023-05-25T11:20:11.556Z,9.52
2023-05-25T11:21:14.494Z,7.35
2023-05-25T11:22:17.469Z,8.47
2023-05-25T11:23:20.348Z,5.87
2023-05-25T11:24:23.646Z,5.82
2023-05-25T11:25:26.603Z,8.01
2023-05-25T11:26:29.781Z,8.48
2023-05-25T11:27:32.669Z,5.66
2023-05-25T11:28:35.843Z,7.35
2023-05-25T11:29:38.616Z,5.99
2023-05-25T11:30:41.456Z,5.72
2023-05-25T11:31:44.279Z,8.28
2023-05-25T11:32:47.170Z,6.05
2023-05-25T11:33:49.807Z,6.14
2023-05-25T11:34:52.581Z,6.75
2023-05-25T11:36:01.179Z,4.82
2023-05-25T11:37:04.117Z,7.87
2023-05-25T11:38:07.258Z,9.52
2023-05-25T11:39:17.501Z,5.87
2023-05-25T11:40:14.232Z,5.90
2023-05-25T11:41:17.098Z,6.66
2023-05-25T11:42:20.578Z,6.85
2023-05-25T11:43:23.768Z,6.44
2023-05-25T11:44:26.846Z,5.80
2023-05-25T11:45:30.236Z,6.72
2023-05-25T11:46:33.297Z,6.40
2023-05-25T11:47:38.074Z,11.01
2023-05-25T11:48:40.902Z,7.97
2023-05-25T11:49:43.779Z,6.70
2023-05-25T11:50:47.160Z,8.19
2023-05-25T11:51:50.251Z,6.70
2023-05-25T11:52:58.378Z,8.04
2023-05-25T11:54:01.318Z,6.49
2023-05-25T11:55:04.612Z,5.60
2023-05-25T11:56:08.654Z,7.02
2023-05-25T11:57:11.580Z,5.64
2023-05-25T11:58:14.558Z,8.74
2023-05-25T11:59:17.432Z,6.00
2023-05-25T12:00:20.409Z,6.02
2023-05-25T12:01:23.693Z,6.98
2023-05-25T12:02:26.558Z,5.74
2023-05-25T12:03:29.696Z,7.58
2023-05-25T12:04:32.907Z,7.34
2023-05-25T12:05:36.201Z,6.01
2023-05-25T12:06:39.298Z,7.13
2023-05-25T12:07:42.283Z,6.57
2023-05-25T12:08:45.146Z,7.68
2023-05-25T12:09:48.129Z,6.22
2023-05-25T12:10:51.424Z,6.76
2023-05-25T12:11:54.591Z,7.41
2023-05-25T12:13:00.330Z,6.52
2023-05-25T12:14:03.110Z,7.03
2023-05-25T12:15:05.879Z,6.40
2023-05-25T12:16:09.005Z,9.35
2023-05-25T12:17:12.102Z,8.11
2023-05-25T12:18:14.904Z,8.19
2023-05-25T12:19:17.776Z,7.62
2023-05-25T12:20:20.630Z,7.38
2023-05-25T12:21:23.459Z,7.00
2023-05-25T12:22:26.209Z,6.59
2023-05-25T12:23:28.976Z,6.32
2023-05-25T12:24:31.642Z,6.66
2023-05-25T12:25:49.073Z,7.22
2023-05-25T12:26:38.826Z,6.60
2023-05-25T12:27:42.108Z,7.68
2023-05-25T12:28:45.328Z,7.89
2023-05-25T12:29:48.298Z,7.69
2023-05-25T12:30:51.492Z,6.36
2023-05-25T12:31:54.638Z,6.90
2023-05-25T12:32:59.063Z,7.37
2023-05-25T12:34:02.224Z,7.49
2023-05-25T12:35:05.279Z,6.13
2023-05-25T12:36:08.184Z,9.98
2023-05-25T12:37:11.156Z,6.69
2023-05-25T12:38:14.239Z,5.75
2023-05-25T12:39:17.109Z,6.01
2023-05-25T12:40:20.447Z,5.98
2023-05-25T12:41:23.475Z,6.52
2023-05-25T12:42:26.143Z,7.27
2023-05-25T12:43:28.914Z,6.32
2023-05-25T12:44:31.700Z,7.10
2023-05-25T12:45:34.252Z,8.82
2023-05-25T12:46:37.252Z,6.32
2023-05-25T12:47:40.239Z,6.46
2023-05-25T12:48:43.393Z,6.96
2023-05-25T12:49:46.488Z,5.78
2023-05-25T12:50:50.331Z,5.96
2023-05-25T12:51:53.965Z,6.49
2023-05-25T12:52:56.837Z,8.58
2023-05-25T12:53:59.922Z,8.66
2023-05-25T12:55:02.797Z,7.05
2023-05-25T12:56:05.764Z,7.83
2023-05-25T12:57:08.651Z,6.68
2023-05-25T12:58:11.516Z,8.34
2023-05-25T12:59:14.802Z,8.40
2023-05-25T13:00:17.994Z,7.29
2023-05-25T13:01:21.073Z,6.58
2023-05-25T13:02:24.076Z,5.16
2023-05-25T13:03:27.059Z,5.49
2023-05-25T13:04:30.095Z,5.79
2023-05-25T13:05:33.343Z,6.24
2023-05-25T13:06:36.271Z,7.24
2023-05-25T13:07:39.336Z,7.56
2023-05-25T13:08:41.855Z,6.63
2023-05-25T13:09:44.919Z,6.33
2023-05-25T13:10:47.659Z,7.84
2023-05-25T13:11:50.433Z,5.13
2023-05-25T13:12:53.201Z,5.78
2023-05-25T13:13:55.877Z,8.05
2023-05-25T13:14:58.762Z,8.36
2023-05-25T13:16:01.541Z,6.28
2023-05-25T13:17:04.287Z,6.28
2023-05-25T13:18:07.019Z,8.38
2023-05-25T13:19:09.727Z,8.34
2023-05-25T13:20:12.626Z,6.54
2023-05-25T13:21:15.377Z,7.82
2023-05-25T13:22:18.039Z,7.13
2023-05-25T13:23:20.711Z,5.19
2023-05-25T13:24:23.488Z,6.59
2023-05-25T13:25:26.261Z,7.48
2023-05-25T13:26:29.030Z,8.95
2023-05-25T13:27:31.807Z,5.47
2023-05-25T13:28:34.674Z,6.15
2023-05-25T13:29:37.345Z,6.72
2023-05-25T13:30:40.740Z,7.18
2023-05-25T13:31:43.673Z,9.02
2023-05-25T13:32:48.669Z,9.09
2023-05-25T13:33:50.998Z,7.23
2023-05-25T13:34:53.689Z,7.93
2023-05-25T13:35:56.445Z,7.55
2023-05-25T13:36:59.212Z,7.27
2023-05-25T13:38:02.084Z,7.01
2023-05-25T13:39:04.963Z,8.32
2023-05-25T13:40:07.831Z,8.75
2023-05-25T13:41:10.673Z,6.12
2023-05-25T13:42:13.278Z,6.68
2023-05-25T13:43:16.049Z,7.75
2023-05-25T13:44:19.021Z,7.85
2023-05-25T13:45:22.013Z,8.80
2023-05-25T13:46:34.238Z,6.74
2023-05-25T13:47:29.822Z,7.07
2023-05-25T13:48:32.808Z,7.35
2023-05-25T13:49:35.764Z,8.05
2023-05-25T13:50:38.727Z,7.65